• Join FlightAware (Why Join?)
  • Login
  • US Flag 
05:21AM EDT


 

Airport Tracker/Info


-or-


 

Live Flight TrackerFlight Track Log ✈ RPA3275 ✈ 24-May-2013 ✈ KALB - KPHL

Flight Track Log - Related Links

Times and Time Zones

All times are in EDT time to prevent confusion due to time zone crossing. See the RPA3275 flight status page for this flight to view local times or setup timezone preferences in your user account.

Time Position Orientation Groundspeed Altitude Reporting Facility
EDT Latitude Longitude Course Direction KTS MPH feet Rate Location/Type
07:08AM 42.7503 -73.8311 223° Southwest 136 157 1,500  Level Boston Center
07:10AM 42.7472 -73.9244 267° West 166 191 3,900 2,040 Climbing Boston Center
07:11AM 42.7333 -74.2661 270° West  Level FlightAware Approximate
07:11AM 42.7478 -74.0233 270° West 224 258 6,600  Level Boston Center
07:12AM 42.6927 -74.3603 220° Southwest  Level FlightAware Approximate
07:12AM 42.7481 -74.1564 270° West 273 314 10,900  Level Boston Center
07:13AM 42.6268 -74.4345 220° Southwest  Level FlightAware Approximate
07:13AM 42.7464 -74.2522 269° West 279 321 13,400  Level Boston Center
07:14AM 42.5619 -74.5102 223° Southwest  Level FlightAware Approximate
07:14AM 42.7094 -74.3503 243° Southwest 267 307 16,000  Level Boston Center
07:15AM 42.6478 -74.4217 220° Southwest 298 343 16,000 60 Level Boston Center
07:16AM 42.5775 -74.5011 220° Southwest 317 365 16,200 60 Climbing Boston Center
07:17AM 42.5158 -74.5753 222° Southwest 322 371 16,200  Level Boston Center
07:18AM 42.4347 -74.6681 220° Southwest 340 391 16,200  Level Boston Center
07:20AM 42.3106 -74.8058 219° Southwest 347 399 16,200  Level New York Center
07:21AM 42.2392 -74.8883 221° Southwest 341 392 16,200  Level New York Center
07:22AM 42.1525 -74.9808 218° Southwest 347 399 16,200  Level New York Center
07:23AM 42.0733 -75.0483 212° Southwest 352 405 16,200  Level New York Center
07:24AM 41.9917 -75.1156 211° Southwest 352 405 16,200  Level New York Center
07:25AM 41.9081 -75.1825 211° Southwest 352 405 16,200 -2,100 Level New York Center
07:26AM 41.8353 -75.2361 209° Southwest 346 398 12,000 -60 Descending New York Center
07:27AM 41.7556 -75.3058 213° Southwest 346 398 16,100 1,980 Climbing New York Center
07:28AM 41.6653 -75.3775 211° Southwest 353 406 16,100 -600 Level New York Center
07:29AM 41.5836 -75.4411 210° Southwest 347 399 15,000 -1,440 Descending New York Center
07:30AM 41.5061 -75.5050 212° Southwest 347 399 13,300 -1,440 Descending New York Center
07:31AM 41.4331 -75.5636 211° Southwest 342 394 12,100 -660 Descending New York Center
07:32AM 41.3450 -75.6319 210° Southwest 347 399 12,100  Level New York Center
07:33AM 41.2633 -75.6922 209° Southwest 347 399 12,100  Level New York Center
07:34AM 41.1697 -75.6881 178° South 335 386 12,100  Level New York Center
07:35AM 41.0739 -75.6894 181° South 350 403 12,100 -60 Level New York Center
07:36AM 40.9786 -75.6744 173° South 345 397 12,000 -60 Descending New York Center
07:37AM 40.8950 -75.6325 159° South 350 403 12,000  Level New York Center
07:38AM 40.8028 -75.5931 162° South 357 411 12,000  Level New York Center
07:39AM 40.7006 -75.5450 160° South 357 411 12,000  Level New York Center
07:40AM 40.6125 -75.5058 161° South 357 411 12,000 -420 Level New York Center
07:41AM 40.5203 -75.4642 161° South 352 405 11,200 -960 Descending New York Center
07:42AM 40.4428 -75.4261 160° South 315 362 10,100 -1,200 Descending New York Center
07:43AM 40.3692 -75.3858 157° South 293 337 8,900 -1,500 Descending New York Center
07:44AM 40.2981 -75.3428 155° Southeast 282 325 7,200 -1,440 Descending New York Center
07:45AM 40.2369 -75.3036 154° Southeast 277 319 6,100 -600 Descending New York Center
07:46AM 40.1708 -75.2314 140° Southeast 277 319 6,100 -360 Level New York Center
07:47AM 40.1211 -75.1683 136° Southeast 282 325 5,400 -1,620 Descending New York Center
07:48AM 40.0667 -75.1000 136° Southeast 275 316 3,100 -1,380 Descending Philadelphia TRACON
07:49AM 40.0167 -75.0333 134° Southeast 274 315 3,000 -360 Descending Philadelphia TRACON
07:50AM 39.9500 -75.0167 169° South 201 231 2,500 -480 Descending Philadelphia TRACON
07:51AM 39.9167 -75.0500 217° Southwest 189 217 2,100 -420 Descending Philadelphia TRACON
07:52AM 39.9000 -75.1167 252° West 163 188 1,700 -600 Descending Philadelphia TRACON
07:53AM 39.8833 -75.1667 247° West 134 154 900 -840 Descending Philadelphia TRACON